Marion, Virginia
Current Conditions -  °F | °C
As of 11:15 AM on Wednesday 22 Oct 2014 (Local Time) from KMKJ Reporting Station
Overcast Overcast  
Wind Chill: 42°   Ceiling: 2000
Heat Index: 47°   Visibility: 10mi
Dew Point: 39°   Wind: 10mph
Humidity: 76%   Direction: 290°WNW
Pressure: 30.16"   Gusts: NA
Location:  36.83°N, 81.52°W
Report Text: KMKJ 221515Z AUTO 29009KT 10SM OVC020 08/04 A3016 RMK AO2 T00810041
Loading
Personal Weather Stations






























Interactive Weather Map
Tropical Storm Tracking
New forecast layout! Learn more

10-Day Weather Forecast

Advertisements
Track Severe Weather on mobile